CPX403 Details

Departure: Seattle-Tacoma International Airport (KSEA)
Arrival: Los Angeles International Airport (KLAX) at N/A
Route: SUMMA1 SUMMA JINMO Q7 JAGWA BURGL IRNMN2
Notes:


Current Weather Information
KSEA 251053Z 08007KT 10SM OVC055 16/10 A3007 RMK AO2 SLP188 T01610100
KLAX 251053Z 23003KT 10SM FEW010 20/18 A2996 RMK AO2 SLP143 T02000178 VISNO RWY24 $